Ames, Nebraska
Current Conditions -  °F | °C
As of 10:15 AM on Monday 24 Nov 2014 (Local Time) from KFET Reporting Station
Overcast Overcast  
Wind Chill: 14°   Ceiling: 2300
Heat Index: 29°   Visibility: 10mi
Dew Point: 20°   Wind: 28mph
Humidity: 68%   Direction: 310°NW
Pressure: 29.73"   Gusts: 33mph
Location:  41.45°N, 96.63°W
Report Text: KFET 241615Z AUTO 31024G29KT 10SM OVC023 M01/M07 A2973 RMK AO2 T10151067
Loading
Personal Weather Stations






























Interactive Weather Map New forecast layout! Learn more

10-Day Weather Forecast

Advertisements
Track Severe Weather on mobile